Pošljite nam besedila, fotografije in posnetke z letalskimi motivi na info@sierra5.net

Zasilni pristanek jadralnega letala na Pohorju

Oceni ta prispevek
(6 glasov)
26 Feb 22
Napisal
Objavljeno v Novice

Uprava Republike Slovenije za zaščito in reševanje sporoča, da je danes okoli 16.30 ure na območju občine Ribnica na Pohorju strmoglavilo ultralahko letalo.

Posredovali so gasilci PGD Radlje ob Dravi, ki so zavarovali mesto nesreče in nudili pomoč policistom. Reševalci ZRCK Ravne na Koroškem so eno osebo pregledali, vendar zdravniška pomoč ni bila potrebna. O dogodku so bile obveščene vse pristojne službe. Po podatkihh gasilcev je bila mikro lokacija Hudi kot v občini Ribnica na Pohorju.

Vir: PGD Radlje
Vir: PGD Radlje

Po fotografijah, ki so jih objavili gasilci PGD Radlje ob Dravi na svoji spletni strani, je šlo dejansko za jadralno letalo s pomožnim motorjem Jonker JS-3 Rapture nemških registrskih oznak D-KXBL in tekmovalno oznako BL. Jadralno letalo je bila ena izmed zadnjih pridobitev letališča v Lescah pri Bledu (LJBL), kjer je bilo letalo bazirano, sicer pa bi naj bilo letalo zasebne lasti. Pilot lahko s pomožnim reakcijskim motorjem si pomaga v določenih situacijah, ko se mu na primer nenadoma spremenijo meteorološke okoliščine v okolici jadranja. 

Vir: PGD Radlje
Vir: PGD Radlje

Po dosedaj zbranih podatkih v uredništvu je šlo za zelo izkušenega pilota, ki je poletel danes iz letališča Moškanjci pri Ptuju (LJPT) in bil na jadranju po obronkih Pohorja ter tudi v sosednji Avstriji. 

Nesrečno jadralno letalo med vzletanjem s pomočjo aerozaprege pred nekaj tedni (Foto: Rok Oblak)
Nesrečno jadralno letalo med vzletanjem s pomočjo aerozaprege pred nekaj tedni (Foto: Rok Oblak)

Spodaj objavljamo nekaj fotografij spletnih kamer iz okolice ter METAR (kodirana oblika opisa vremena na letališču) in TAF (kodirana oblika vremenske napovedi za letališča) podatke za najbližje mednarodno letališče, Letališče Edvarda Rusjana Maribor (LJMB), ki kažejo na zelo spremenljivo vremensko napoved in potem tudi dejansko stanje danes na Štajerskem.

Vremenski pogoji (METAR):

METAR LJMB 261600Z 04012KT 010V070 9999 FEW043 SCT060 BKN086 05/M04 Q1027=

METAR LJMB 261530Z 02009KT 330V060 9999 FEW043TCU SCT060 BKN083 06/M03 Q1028=

METAR LJMB 261500Z 35009KT 9999 VCSH FEW043TCU FEW053 BKN083 05/M00 Q1027=

Vremenska napoved (TAF):

TAF LJMB 260500Z 2606/2706 34003KT 3000 BCFG BR SCT003 PROB30 TEMPO 2606/2608 0500 FZFG BKN001 BECMG 2608/2610 9999 NSW BECMG 2610/2612 02010KT PROB30 TEMPO 2612/2617 -RA=

TAF LJMB 261100Z 2612/2712 04008KT 9999 FEW033 PROB30 TEMPO 2612/2616 -SHSNRA BKN050TCU=

Opazovalna kamera na Rogli s pogledom proti severo-zahodu ob 16.20 uri po lokalnem času. 

Vir: ARSO
Vir: ARSO

Opazovalna kamera v Šmartnem pri Slovenj Gradcu s pogledom proti vzhodu ob 16.20 uri po lokalnem času.

Vir: ARSO
Vir: ARSO

Viri fotografij: PGD Radlje ob Dravi in Rok Oblak


Koledar objav

« Avgust 2022 »
Pon Tor Sre Čet Pet Sob Ned
1 2 3 4 5 6 7
8 9 10 11 12 13 14
15 16 17 18 19 20 21
22 23 24 25 26 27 28
29 30 31